createdAt,value
2018-05-27T00:01:36.569Z,100327.78
2018-05-27T00:05:39.050Z,100329.28
2018-05-27T00:09:41.518Z,100325.83
2018-05-27T00:13:44.010Z,100328.71
2018-05-27T00:17:46.508Z,100331.67
2018-05-27T00:21:48.991Z,100329.20
2018-05-27T00:25:51.510Z,100335.66
2018-05-27T00:29:54.014Z,100331.84
2018-05-27T00:33:56.489Z,100332.08
2018-05-27T00:37:58.974Z,100330.00
2018-05-27T00:42:01.438Z,100323.04
2018-05-27T00:46:03.935Z,100325.39
2018-05-27T00:50:06.579Z,100322.84
2018-05-27T00:54:09.067Z,100320.75
2018-05-27T00:58:11.550Z,100323.10
2018-05-27T01:02:14.058Z,100324.55
2018-05-27T01:06:16.531Z,100313.97
2018-05-27T01:10:19.018Z,100308.78
2018-05-27T01:14:21.537Z,100302.14
2018-05-27T01:18:24.064Z,100302.17
2018-05-27T01:22:26.547Z,100300.01
2018-05-27T01:26:29.019Z,100295.56
2018-05-27T01:30:31.502Z,100289.83
2018-05-27T01:34:34.011Z,100288.64
2018-05-27T01:38:36.470Z,100289.69
2018-05-27T01:42:38.998Z,100281.78
2018-05-27T01:46:41.462Z,100283.70
2018-05-27T01:50:43.975Z,100287.77
2018-05-27T01:54:46.478Z,100290.98
2018-05-27T01:58:48.955Z,100292.93
2018-05-27T02:02:51.455Z,100297.05
2018-05-27T02:06:53.972Z,100291.87
2018-05-27T02:10:56.430Z,100288.48
2018-05-27T02:14:58.923Z,100296.62
2018-05-27T02:19:01.385Z,100297.13
2018-05-27T02:23:03.876Z,100293.98
2018-05-27T02:27:06.339Z,100298.86
2018-05-27T02:31:08.826Z,100305.97
2018-05-27T02:35:11.311Z,100304.66
2018-05-27T02:39:13.803Z,100301.27
2018-05-27T02:43:16.312Z,100298.32
2018-05-27T02:47:18.797Z,100308.16
2018-05-27T02:51:21.286Z,100308.70
2018-05-27T02:55:23.780Z,100306.09
2018-05-27T02:59:26.274Z,100299.02
2018-05-27T03:03:28.745Z,100294.77
2018-05-27T03:07:31.228Z,100295.61
2018-05-27T03:11:33.730Z,100302.61
2018-05-27T03:15:36.199Z,100300.17
2018-05-27T03:19:38.707Z,100291.52
2018-05-27T03:23:42.062Z,100287.63
2018-05-27T03:27:44.519Z,100294.02
2018-05-27T03:31:47.030Z,100283.45
2018-05-27T03:35:49.511Z,100285.59
2018-05-27T03:39:52.026Z,100286.41
2018-05-27T03:43:54.482Z,100284.31
2018-05-27T03:47:56.972Z,100286.62
2018-05-27T03:51:59.471Z,100288.37
2018-05-27T03:56:01.957Z,100285.19
2018-05-27T04:00:04.455Z,100286.92
2018-05-27T04:04:18.607Z,100288.66
2018-05-27T04:08:35.956Z,100283.22
2018-05-27T04:12:38.460Z,100290.64
2018-05-27T04:16:40.967Z,100296.75
2018-05-27T04:20:43.463Z,100285.51
2018-05-27T04:24:45.951Z,100279.25
2018-05-27T04:28:48.424Z,100280.93
2018-05-27T04:32:50.918Z,100281.68
2018-05-27T04:36:53.407Z,100286.89
2018-05-27T04:40:55.898Z,100285.44
2018-05-27T04:44:58.381Z,100291.92
2018-05-27T04:49:00.861Z,100293.59
2018-05-27T04:53:03.358Z,100292.13
2018-05-27T04:57:05.850Z,100297.75
2018-05-27T05:01:08.338Z,100299.75
2018-05-27T05:05:10.793Z,100298.59
2018-05-27T05:09:13.275Z,100292.66
2018-05-27T05:13:15.730Z,100295.63
2018-05-27T05:17:18.210Z,100291.48
2018-05-27T05:21:20.674Z,100305.05
2018-05-27T05:25:23.170Z,100303.08
2018-05-27T05:29:25.674Z,100297.99
2018-05-27T05:33:28.157Z,100294.05
2018-05-27T05:37:30.645Z,100290.62
2018-05-27T05:41:33.136Z,100294.09
2018-05-27T05:45:35.668Z,100296.66
2018-05-27T05:49:38.132Z,100292.63
2018-05-27T05:53:40.622Z,100301.23
2018-05-27T05:57:43.123Z,100314.36
2018-05-27T06:01:45.602Z,100314.55
2018-05-27T06:05:48.089Z,100315.25
2018-05-27T06:09:50.576Z,100310.58
2018-05-27T06:13:53.111Z,100311.98
2018-05-27T06:17:55.629Z,100317.66
2018-05-27T06:21:58.108Z,100324.23
2018-05-27T06:26:00.592Z,100326.92
2018-05-27T06:30:03.078Z,100328.27
2018-05-27T06:34:05.543Z,100327.35
2018-05-27T06:38:08.521Z,100322.77
2018-05-27T06:42:11.008Z,100318.66
2018-05-27T06:46:13.490Z,100322.47
2018-05-27T06:50:16.012Z,100327.63
2018-05-27T06:54:18.488Z,100330.03
2018-05-27T06:58:20.987Z,100323.32
2018-05-27T07:02:23.485Z,100331.35
2018-05-27T07:06:25.963Z,100330.59
2018-05-27T07:10:28.442Z,100328.81
2018-05-27T07:14:30.935Z,100330.10
2018-05-27T07:18:33.443Z,100322.55
2018-05-27T07:22:35.911Z,100317.86
2018-05-27T07:26:38.402Z,100316.69
2018-05-27T07:30:40.878Z,100318.73
2018-05-27T07:34:43.357Z,100324.27
2018-05-27T07:38:45.824Z,100322.66
2018-05-27T07:42:48.301Z,100322.23
2018-05-27T07:46:50.793Z,100323.13
2018-05-27T07:50:53.276Z,100330.33
2018-05-27T07:54:55.764Z,100326.23
2018-05-27T07:58:58.246Z,100334.84
2018-05-27T08:03:00.757Z,100337.00
2018-05-27T08:07:03.288Z,100345.17
2018-05-27T08:11:05.755Z,100352.77
2018-05-27T08:15:08.261Z,100340.40
2018-05-27T08:19:10.722Z,100340.60
2018-05-27T08:23:13.223Z,100344.06
2018-05-27T08:27:15.701Z,100343.20
2018-05-27T08:31:18.195Z,100345.33
2018-05-27T08:35:20.679Z,100350.10
2018-05-27T08:39:23.126Z,100345.30
2018-05-27T08:43:25.647Z,100352.08
2018-05-27T08:47:28.093Z,100355.75
2018-05-27T08:51:30.614Z,100342.92
2018-05-27T08:55:33.099Z,100330.30
2018-05-27T08:59:35.571Z,100331.71
2018-05-27T09:03:38.064Z,100331.55
2018-05-27T09:07:40.510Z,100337.47
2018-05-27T09:11:42.998Z,100335.55
2018-05-27T09:15:45.489Z,100335.41
2018-05-27T09:19:47.955Z,100333.02
2018-05-27T09:23:50.454Z,100327.14
2018-05-27T09:27:52.920Z,100329.67
2018-05-27T09:31:55.422Z,100331.84
2018-05-27T09:35:57.881Z,100329.31
2018-05-27T09:40:00.369Z,100324.06
2018-05-27T09:44:02.862Z,100325.92
2018-05-27T09:48:05.326Z,100327.72
2018-05-27T09:52:08.058Z,100326.53
2018-05-27T09:56:10.506Z,100316.02
2018-05-27T10:00:12.988Z,100319.25
2018-05-27T10:04:15.463Z,100320.17
2018-05-27T10:08:17.990Z,100320.91
2018-05-27T10:12:20.484Z,100311.86
2018-05-27T10:16:22.950Z,100309.58
2018-05-27T10:20:25.445Z,100309.91
2018-05-27T10:24:27.915Z,100310.75
2018-05-27T10:28:30.405Z,100303.53
2018-05-27T10:32:32.859Z,100298.06
2018-05-27T10:36:35.346Z,100296.09
2018-05-27T10:40:37.852Z,100290.41
2018-05-27T10:44:40.336Z,100287.61
2018-05-27T10:48:42.800Z,100277.36
2018-05-27T10:52:45.275Z,100275.31
2018-05-27T10:56:47.739Z,100275.89
2018-05-27T11:00:50.228Z,100258.63
2018-05-27T11:04:52.686Z,100260.77
2018-05-27T11:08:55.174Z,100256.12
2018-05-27T11:12:57.658Z,100255.47
2018-05-27T11:17:00.122Z,100243.60
2018-05-27T11:21:02.604Z,100247.73
2018-05-27T11:25:05.072Z,100231.70
2018-05-27T11:29:07.552Z,100228.53
2018-05-27T11:33:10.039Z,100213.95
2018-05-27T11:37:12.522Z,100204.92
2018-05-27T11:41:15.018Z,100200.29
2018-05-27T11:45:17.470Z,100197.02
2018-05-27T11:49:19.964Z,100191.17
2018-05-27T11:53:22.437Z,100196.72
2018-05-27T11:57:24.926Z,100194.47
2018-05-27T12:01:27.403Z,100177.28
2018-05-27T12:05:29.915Z,100176.16
2018-05-27T12:09:32.650Z,100170.27
2018-05-27T12:13:35.018Z,100164.55
2018-05-27T12:17:37.593Z,100165.55
2018-05-27T12:21:40.089Z,100164.73
2018-05-27T12:25:42.548Z,100162.31
2018-05-27T12:29:45.059Z,100163.55
2018-05-27T12:33:47.495Z,100159.27
2018-05-27T12:37:49.980Z,100155.30
2018-05-27T12:41:52.466Z,100151.67
2018-05-27T12:45:54.953Z,100138.62
2018-05-27T12:49:57.443Z,100130.00
2018-05-27T12:53:59.942Z,100124.25
2018-05-27T12:58:02.496Z,100130.70
2018-05-27T13:02:05.005Z,100129.05
2018-05-27T13:06:07.466Z,100132.92
2018-05-27T13:10:09.971Z,100128.89
2018-05-27T13:14:12.432Z,100139.24
2018-05-27T13:18:14.913Z,100134.02
2018-05-27T13:22:17.394Z,100133.16
2018-05-27T13:26:19.873Z,100129.72
2018-05-27T13:30:22.365Z,100125.92
2018-05-27T13:34:24.869Z,100118.63
2018-05-27T13:38:27.358Z,100131.14
2018-05-27T13:42:29.819Z,100143.53
2018-05-27T13:46:32.326Z,100138.97
2018-05-27T13:50:34.816Z,100138.97
2018-05-27T13:54:37.290Z,100145.91
2018-05-27T13:58:39.759Z,100144.12
2018-05-27T14:02:42.241Z,100137.62
2018-05-27T14:06:44.824Z,100130.84
2018-05-27T14:10:47.274Z,100128.66
2018-05-27T14:14:49.799Z,100124.17
2018-05-27T14:18:52.300Z,100123.05
2018-05-27T14:22:54.767Z,100114.91
2018-05-27T14:26:57.280Z,100110.42
2018-05-27T14:30:59.762Z,100101.30
2018-05-27T14:35:02.563Z,100102.81
2018-05-27T14:39:05.959Z,100108.14
2018-05-27T14:43:08.423Z,100105.36
2018-05-27T14:47:10.917Z,100103.42
2018-05-27T14:51:13.416Z,100103.91
2018-05-27T14:55:15.874Z,100101.11
2018-05-27T14:59:18.372Z,100101.50
2018-05-27T15:03:20.836Z,100100.00
2018-05-27T15:07:23.328Z,100100.47
2018-05-27T15:11:25.787Z,100100.00
2018-05-27T15:15:28.274Z,100092.34
2018-05-27T15:19:30.791Z,100086.92
2018-05-27T15:23:33.269Z,100076.66
2018-05-27T15:27:35.717Z,100080.95
2018-05-27T15:31:38.203Z,100066.98
2018-05-27T15:35:40.650Z,100066.91
2018-05-27T15:39:43.126Z,100057.56
2018-05-27T15:43:45.612Z,100057.66
2018-05-27T15:47:48.080Z,100057.27
2018-05-27T15:51:50.563Z,100054.32
2018-05-27T15:55:53.027Z,100046.79
2018-05-27T15:59:55.514Z,100050.13
2018-05-27T16:03:58.012Z,100060.55
2018-05-27T16:08:00.502Z,100059.69
2018-05-27T16:12:03.002Z,100065.59
2018-05-27T16:16:05.459Z,100066.75
2018-05-27T16:20:07.942Z,100069.19
2018-05-27T16:24:10.469Z,100060.00
2018-05-27T16:28:12.935Z,100067.02
2018-05-27T16:32:15.426Z,100070.02
2018-05-27T16:36:17.883Z,100075.77
2018-05-27T16:40:20.369Z,100072.80
2018-05-27T16:44:22.855Z,100080.70
2018-05-27T16:48:25.348Z,100085.84
2018-05-27T16:52:27.842Z,100086.30
2018-05-27T16:56:31.302Z,100089.91
2018-05-27T17:00:33.748Z,100086.72
2018-05-27T17:04:36.229Z,100092.64
2018-05-27T17:08:38.735Z,100097.22
2018-05-27T17:12:41.243Z,100103.70
2018-05-27T17:16:43.747Z,100107.41
2018-05-27T17:20:46.226Z,100101.25
2018-05-27T17:24:48.708Z,100106.84
2018-05-27T17:28:51.153Z,100109.53
2018-05-27T17:32:53.629Z,100107.30
2018-05-27T17:36:56.123Z,100105.49
2018-05-27T17:40:58.669Z,100106.42
2018-05-27T17:45:01.148Z,100104.87
2018-05-27T17:49:03.633Z,100111.05
2018-05-27T17:53:06.115Z,100111.11
2018-05-27T17:57:09.591Z,100122.52
2018-05-27T18:01:12.074Z,100122.72
2018-05-27T18:05:14.540Z,100129.20
2018-05-27T18:09:17.021Z,100131.70
2018-05-27T18:13:19.550Z,100129.63
2018-05-27T18:17:22.077Z,100118.30
2018-05-27T18:21:24.531Z,100122.57
2018-05-27T18:25:27.007Z,100121.64
2018-05-27T18:29:29.490Z,100122.37
2018-05-27T18:33:32.158Z,100126.70
2018-05-27T18:37:34.633Z,100133.26
2018-05-27T18:41:37.124Z,100139.44
2018-05-27T18:45:39.649Z,100147.86
2018-05-27T18:49:42.075Z,100148.30
2018-05-27T18:53:44.647Z,100154.34
2018-05-27T18:57:47.131Z,100148.84
2018-05-27T19:01:49.627Z,100160.16
2018-05-27T19:05:52.109Z,100154.80
2018-05-27T19:09:54.871Z,100159.27
2018-05-27T19:13:57.349Z,100156.94
2018-05-27T19:17:59.842Z,100148.80
2018-05-27T19:22:02.329Z,100149.30
2018-05-27T19:26:04.808Z,100141.71
2018-05-27T19:30:07.324Z,100145.60
2018-05-27T19:34:09.819Z,100143.55
2018-05-27T19:38:12.304Z,100137.86
2018-05-27T19:42:14.861Z,100139.46
2018-05-27T19:46:17.289Z,100143.37
2018-05-27T19:50:19.782Z,100146.69
2018-05-27T19:54:22.358Z,100144.02
2018-05-27T19:58:24.817Z,100148.16
2018-05-27T20:02:27.303Z,100154.19
2018-05-27T20:06:29.796Z,100149.02
2018-05-27T20:10:32.258Z,100154.28
2018-05-27T20:14:34.740Z,100154.07
2018-05-27T20:18:37.231Z,100153.06
2018-05-27T20:22:39.710Z,100155.96
2018-05-27T20:26:42.203Z,100166.34
2018-05-27T20:30:44.737Z,100163.44
2018-05-27T20:34:47.202Z,100168.41
2018-05-27T20:38:49.701Z,100173.31
2018-05-27T20:42:52.190Z,100169.44
2018-05-27T20:46:54.881Z,100164.50
2018-05-27T20:50:57.388Z,100169.28
2018-05-27T20:54:59.848Z,100174.53
2018-05-27T20:59:02.346Z,100174.91
2018-05-27T21:03:04.822Z,100178.15
2018-05-27T21:07:07.318Z,100174.73
2018-05-27T21:11:09.799Z,100190.97
2018-05-27T21:15:13.351Z,100193.72
2018-05-27T21:19:16.834Z,100198.39
2018-05-27T21:23:19.321Z,100203.11
2018-05-27T21:27:21.831Z,100205.48
2018-05-27T21:31:26.364Z,100202.05
2018-05-27T21:35:29.096Z,100208.34
2018-05-27T21:39:31.586Z,100209.74
2018-05-27T21:43:34.099Z,100208.20
2018-05-27T21:47:36.596Z,100203.51
2018-05-27T21:51:39.082Z,100203.56
2018-05-27T21:55:41.573Z,100204.28
2018-05-27T21:59:44.083Z,100201.28
2018-05-27T22:03:48.614Z,100197.05
2018-05-27T22:07:51.123Z,100197.61
2018-05-27T22:11:53.709Z,100194.97
2018-05-27T22:15:57.254Z,100185.80
2018-05-27T22:20:04.384Z,100188.09
2018-05-27T22:24:06.889Z,100191.61
2018-05-27T22:28:10.317Z,100193.52
2018-05-27T22:32:12.829Z,100185.37
2018-05-27T22:36:15.316Z,100189.73
2018-05-27T22:40:17.779Z,100188.34
2018-05-27T22:44:20.271Z,100197.03
2018-05-27T22:48:22.766Z,100195.37
2018-05-27T22:52:25.264Z,100193.23
2018-05-27T22:56:27.775Z,100192.10
2018-05-27T23:00:30.273Z,100192.91
2018-05-27T23:04:32.738Z,100187.33
2018-05-27T23:08:35.249Z,100180.84
2018-05-27T23:12:37.748Z,100178.22
2018-05-27T23:16:40.255Z,100181.53
2018-05-27T23:20:42.748Z,100177.08
2018-05-27T23:24:45.258Z,100186.52
2018-05-27T23:28:48.833Z,100186.77
2018-05-27T23:32:51.948Z,100189.28
2018-05-27T23:36:54.473Z,100179.37
2018-05-27T23:40:59.045Z,100181.02
2018-05-27T23:45:03.604Z,100184.19
2018-05-27T23:49:07.207Z,100183.18
2018-05-27T23:53:09.726Z,100179.69
2018-05-27T23:57:13.215Z,100177.84
